createdAt,value
2023-01-13T00:00:47.950Z,9.00
2023-01-13T00:05:56.600Z,8.80
2023-01-13T00:11:04.841Z,8.70
2023-01-13T00:16:17.617Z,8.60
2023-01-13T00:21:26.819Z,8.60
2023-01-13T00:26:36.728Z,8.70
2023-01-13T00:31:43.219Z,8.70
2023-01-13T00:36:50.412Z,8.50
2023-01-13T00:42:14.664Z,8.50
2023-01-13T00:47:21.402Z,8.40
2023-01-13T00:52:29.352Z,8.40
2023-01-13T00:57:36.783Z,8.30
2023-01-13T01:02:43.932Z,8.30
2023-01-13T01:07:51.527Z,8.30
2023-01-13T01:12:58.771Z,8.20
2023-01-13T01:18:06.035Z,8.10
2023-01-13T01:23:12.588Z,8.10
2023-01-13T01:28:20.866Z,8.10
2023-01-13T01:33:28.478Z,8.30
2023-01-13T01:38:37.102Z,8.50
2023-01-13T01:44:03.413Z,8.50
2023-01-13T01:49:34.314Z,8.60
2023-01-13T01:54:45.696Z,8.50
2023-01-13T01:59:52.609Z,8.50
2023-01-13T02:05:01.964Z,8.40
2023-01-13T02:10:15.266Z,8.30
2023-01-13T02:15:26.948Z,8.10
2023-01-13T02:21:05.050Z,8.00
2023-01-13T02:26:28.564Z,7.90
2023-01-13T02:31:43.222Z,7.90
2023-01-13T02:37:03.821Z,7.90
2023-01-13T02:42:37.545Z,7.80
2023-01-13T02:47:50.056Z,7.90
2023-01-13T02:53:07.072Z,8.00
2023-01-13T02:58:18.787Z,8.20
2023-01-13T03:03:27.028Z,8.10
2023-01-13T03:08:40.871Z,8.10
2023-01-13T03:14:09.026Z,8.10
2023-01-13T03:19:46.340Z,8.10
2023-01-13T03:24:57.685Z,8.10
2023-01-13T03:30:11.968Z,8.10
2023-01-13T03:35:30.029Z,8.10
2023-01-13T03:40:41.917Z,8.10
2023-01-13T03:45:53.296Z,8.20
2023-01-13T03:51:07.600Z,8.30
2023-01-13T03:56:31.585Z,8.30
2023-01-13T04:01:52.027Z,8.30
2023-01-13T04:07:06.757Z,8.30
2023-01-13T04:12:29.173Z,8.40
2023-01-13T04:17:37.549Z,8.30
2023-01-13T04:22:44.558Z,8.20
2023-01-13T04:27:51.257Z,8.30
2023-01-13T04:32:58.405Z,8.20
2023-01-13T04:38:12.614Z,8.20
2023-01-13T04:43:20.784Z,8.10
2023-01-13T04:48:28.936Z,8.10
2023-01-13T04:53:36.774Z,8.40
2023-01-13T04:58:45.376Z,8.30
2023-01-13T05:03:52.630Z,8.30
2023-01-13T05:08:59.389Z,8.60
2023-01-13T05:14:23.694Z,8.50
2023-01-13T05:19:35.201Z,8.40
2023-01-13T05:25:03.329Z,8.40
2023-01-13T05:30:12.165Z,8.30
2023-01-13T05:35:20.365Z,8.20
2023-01-13T05:40:45.207Z,8.20
2023-01-13T05:46:10.750Z,8.20
2023-01-13T05:51:20.659Z,8.10
2023-01-13T05:56:28.501Z,8.20
2023-01-13T06:01:36.899Z,8.10
2023-01-13T06:06:45.571Z,8.20
2023-01-13T06:11:52.063Z,8.10
2023-01-13T06:16:59.191Z,7.70
2023-01-13T06:22:14.017Z,7.90
2023-01-13T06:27:23.266Z,8.50
2023-01-13T06:32:34.586Z,8.70
2023-01-13T06:37:43.015Z,8.30
2023-01-13T06:43:08.025Z,8.30
2023-01-13T06:48:15.214Z,8.40
2023-01-13T06:53:23.438Z,8.40
2023-01-13T06:58:30.427Z,8.30
2023-01-13T07:03:36.946Z,8.30
2023-01-13T07:08:44.029Z,8.20
2023-01-13T07:14:08.625Z,8.10
2023-01-13T07:19:17.436Z,8.20
2023-01-13T07:24:24.441Z,8.70
2023-01-13T07:29:31.974Z,8.90
2023-01-13T07:34:38.638Z,8.80
2023-01-13T07:39:46.573Z,8.70
2023-01-13T07:44:53.987Z,8.50
2023-01-13T07:50:03.723Z,9.00
2023-01-13T07:55:11.236Z,9.10
2023-01-13T08:00:19.124Z,8.90
2023-01-13T08:05:27.917Z,8.90
2023-01-13T08:10:34.663Z,8.60
2023-01-13T08:15:41.474Z,8.60
2023-01-13T08:20:52.961Z,8.60
2023-01-13T08:26:05.322Z,8.40
2023-01-13T08:31:19.202Z,8.30
2023-01-13T08:36:26.968Z,8.40
2023-01-13T08:41:52.544Z,8.50
2023-01-13T08:46:59.880Z,8.70
2023-01-13T08:52:07.090Z,8.70
2023-01-13T08:57:15.978Z,8.60
2023-01-13T09:02:24.472Z,8.60
2023-01-13T09:07:32.011Z,8.60
2023-01-13T09:12:56.579Z,8.50
2023-01-13T09:18:04.485Z,8.90
2023-01-13T09:23:11.686Z,9.20
2023-01-13T09:28:19.920Z,9.30
2023-01-13T09:33:43.909Z,9.40
2023-01-13T09:38:52.052Z,9.30
2023-01-13T09:44:01.225Z,9.60
2023-01-13T09:49:11.353Z,9.90
2023-01-13T09:54:44.026Z,9.70
2023-01-13T09:59:52.271Z,9.50
2023-01-13T10:05:23.982Z,9.60
2023-01-13T10:10:58.150Z,9.60
2023-01-13T10:16:21.325Z,9.70
2023-01-13T10:21:45.279Z,9.50
2023-01-13T10:27:08.355Z,9.30
2023-01-13T10:32:15.423Z,9.30
2023-01-13T10:37:28.984Z,9.60
2023-01-13T10:42:35.964Z,9.30
2023-01-13T10:47:42.951Z,9.10
2023-01-13T10:53:06.985Z,9.20
2023-01-13T10:58:25.756Z,8.90
2023-01-13T11:03:43.796Z,8.90
2023-01-13T11:08:54.823Z,9.00
2023-01-13T11:14:23.395Z,9.10
2023-01-13T11:19:32.947Z,9.60
2023-01-13T11:24:52.916Z,9.80
2023-01-13T11:30:31.633Z,9.70
2023-01-13T11:36:00.745Z,9.90
2023-01-13T11:41:12.501Z,9.80
2023-01-13T11:46:19.684Z,9.60
2023-01-13T11:51:43.375Z,9.50
2023-01-13T11:57:16.312Z,9.30
2023-01-13T12:02:48.841Z,9.30
2023-01-13T12:08:15.414Z,9.30
2023-01-13T12:13:53.440Z,9.10
2023-01-13T12:19:31.643Z,9.10
2023-01-13T12:24:58.712Z,9.20
2023-01-13T12:30:29.182Z,9.20
2023-01-13T12:35:46.616Z,9.20
2023-01-13T12:41:04.970Z,9.30
2023-01-13T12:46:28.937Z,9.30
2023-01-13T12:51:40.301Z,9.10
2023-01-13T12:56:48.085Z,8.60
2023-01-13T13:02:18.280Z,8.50
2023-01-13T13:07:36.948Z,8.60
2023-01-13T13:13:07.614Z,8.70
2023-01-13T13:18:27.299Z,8.70
2023-01-13T13:23:57.206Z,8.50
2023-01-13T13:29:36.494Z,8.50
2023-01-13T13:34:54.641Z,8.40
2023-01-13T13:40:22.155Z,8.60
2023-01-13T13:45:47.339Z,8.50
2023-01-13T13:51:00.104Z,8.50
2023-01-13T13:56:21.307Z,8.30
2023-01-13T14:01:32.641Z,7.90
2023-01-13T14:06:41.586Z,8.00
2023-01-13T14:12:04.050Z,8.10
2023-01-13T14:17:24.883Z,7.90
2023-01-13T14:22:32.772Z,7.80
2023-01-13T14:27:46.347Z,7.70
2023-01-13T14:32:53.585Z,7.70
2023-01-13T14:38:07.578Z,7.70
2023-01-13T14:43:18.214Z,7.70
2023-01-13T14:48:32.753Z,7.90
2023-01-13T14:53:47.354Z,7.80
2023-01-13T14:58:54.400Z,7.80
2023-01-13T15:04:28.957Z,7.80
2023-01-13T15:09:40.721Z,7.80
2023-01-13T15:14:52.113Z,7.90
2023-01-13T15:20:01.757Z,8.10
2023-01-13T15:25:14.936Z,8.00
2023-01-13T15:30:26.678Z,8.00
2023-01-13T15:35:35.240Z,7.90
2023-01-13T15:40:43.231Z,7.70
2023-01-13T15:46:09.776Z,7.70
2023-01-13T15:51:16.804Z,7.70
2023-01-13T15:56:27.985Z,7.60
2023-01-13T16:01:37.828Z,7.70
2023-01-13T16:06:46.454Z,7.70
2023-01-13T16:11:53.377Z,7.30
2023-01-13T16:17:00.316Z,7.30
2023-01-13T16:22:07.649Z,7.30
2023-01-13T16:27:24.997Z,6.80
2023-01-13T16:32:34.873Z,6.60
2023-01-13T16:37:44.157Z,7.00
2023-01-13T16:42:53.163Z,7.00
2023-01-13T16:48:00.737Z,6.90
2023-01-13T16:53:12.570Z,6.80
2023-01-13T16:58:23.902Z,6.90
2023-01-13T17:03:35.801Z,6.80
2023-01-13T17:08:44.243Z,6.80
2023-01-13T17:13:52.473Z,6.90
2023-01-13T17:18:59.485Z,7.00
2023-01-13T17:24:08.313Z,7.00
2023-01-13T17:29:22.933Z,6.80
2023-01-13T17:34:30.089Z,6.80
2023-01-13T17:39:37.340Z,6.70
2023-01-13T17:44:44.771Z,6.40
2023-01-13T17:49:52.004Z,6.20
2023-01-13T17:54:59.077Z,6.50
2023-01-13T18:00:08.562Z,6.60
2023-01-13T18:05:16.285Z,6.50
2023-01-13T18:10:26.132Z,6.60
2023-01-13T18:15:35.932Z,6.50
2023-01-13T18:21:04.048Z,6.40
2023-01-13T18:26:39.921Z,6.20
2023-01-13T18:31:48.067Z,6.40
2023-01-13T18:36:54.409Z,6.80
2023-01-13T18:42:19.048Z,6.80
2023-01-13T18:47:31.548Z,6.60
2023-01-13T18:52:39.347Z,6.80
2023-01-13T18:57:46.931Z,6.60
2023-01-13T19:08:05.372Z,6.50
2023-01-13T19:13:15.163Z,6.50
2023-01-13T19:18:22.508Z,6.50
2023-01-13T19:23:30.159Z,6.60
2023-01-13T19:28:40.400Z,6.60
2023-01-13T19:33:48.260Z,6.50
2023-01-13T19:38:54.935Z,6.50
2023-01-13T19:44:18.252Z,6.40
2023-01-13T19:49:26.221Z,6.20
2023-01-13T19:54:33.280Z,6.40
2023-01-13T19:59:42.126Z,6.30
2023-01-13T20:04:50.512Z,6.20
2023-01-13T20:10:00.610Z,6.20
2023-01-13T20:15:08.171Z,6.10
2023-01-13T20:20:17.140Z,6.20
2023-01-13T20:25:24.463Z,6.20
2023-01-13T20:30:32.509Z,6.20
2023-01-13T20:35:39.400Z,6.20
2023-01-13T20:40:48.721Z,6.30
2023-01-13T20:45:56.460Z,6.30
2023-01-13T20:51:06.423Z,6.20
2023-01-13T20:56:14.627Z,6.20
2023-01-13T21:01:21.486Z,6.20
2023-01-13T21:06:30.098Z,6.10
2023-01-13T21:11:55.448Z,6.10
2023-01-13T21:17:02.530Z,6.00
2023-01-13T21:22:09.873Z,5.80
2023-01-13T21:27:16.714Z,5.80
2023-01-13T21:32:24.316Z,5.90
2023-01-13T21:37:32.187Z,6.00
2023-01-13T21:42:57.605Z,5.90
2023-01-13T21:48:05.464Z,6.00
2023-01-13T21:53:12.344Z,6.00
2023-01-13T21:58:20.204Z,6.00
2023-01-13T22:03:27.046Z,6.10
2023-01-13T22:08:35.932Z,6.20
2023-01-13T22:14:01.668Z,6.20
2023-01-13T22:19:11.044Z,6.20
2023-01-13T22:24:19.746Z,6.20
2023-01-13T22:29:27.179Z,6.20
2023-01-13T22:34:34.197Z,6.20
2023-01-13T22:39:40.972Z,6.20
2023-01-13T22:44:47.740Z,6.20
2023-01-13T22:49:54.526Z,6.20
2023-01-13T22:55:04.758Z,6.20
2023-01-13T23:00:15.263Z,6.10
2023-01-13T23:05:21.780Z,6.00
2023-01-13T23:10:29.996Z,6.00
2023-01-13T23:15:37.795Z,6.00
2023-01-13T23:20:44.693Z,6.00
2023-01-13T23:25:55.593Z,5.80
2023-01-13T23:31:22.449Z,5.60
2023-01-13T23:36:30.797Z,5.50
2023-01-13T23:41:38.302Z,5.40
2023-01-13T23:46:45.213Z,5.60
2023-01-13T23:51:55.320Z,5.70
2023-01-13T23:57:02.221Z,5.70
